MMPN/UPN METAR and TAF weather

Enter ICAO airport designator
Station Type Date Time Source
MMPN METAR 2021/08/04 23:40 UTC NOAA

MMPN 042340Z 00000KT 6SM -DZ SCT100 BKN130 OVC230 19/17 A3014 RMK 8/077 HZY TS E 05 CU SC


Station Type Date Time Source
MMPN Decoded METAR 2021/08/04 23:40 UTC NOAA

Uruapan / Gen Rayon, Mexico (MMPN) 19-24N 102-02W
Aug 04, 2021 - 07:40 PM EDT / 2021.08.04 2340 UTC
Wind: Calm:0
Visibility: 6 mile(s):0
Sky conditions: overcast
Weather: light drizzle
Temperature: 66 F (19 C)
Dew Point: 62 F (17 C)
Relative Humidity: 88%
Pressure (altimeter): 30.14 in. Hg (1020 hPa)
ob: MMPN 042340Z 00000KT 6SM -DZ SCT100 BKN130 OVC230 19/17 A3014 RMK 8/077 HZY TS E 05 CU SC
cycle: 23

Station Type Date Time Source
MMPN TAF 2021/08/05 06:07 UTC NOAA

TAF MMPN 050400Z 0506/0606 00000KT 6SM HZ SCT120 BKN250
TEMPO 0506/0510 5SM -RA BKN030CB
FM051800 23010KT P6SM SCT030 BKN090 BKN250
TEMPO 0519/0523 BKN020CB

Example: see airport list